sensor_id;sensor_type;location;lat;lon;timestamp;P1;durP1;ratioP1;P2;durP2;ratioP2
7501;SDS011;3792;47.740;7.606;2023-06-04T00:02:20;8.13;;;7.27;;
7501;SDS011;3792;47.740;7.606;2023-06-04T00:04:47;8.43;;;7.50;;
7501;SDS011;3792;47.740;7.606;2023-06-04T00:07:14;8.60;;;7.00;;
7501;SDS011;3792;47.740;7.606;2023-06-04T00:09:43;9.10;;;7.10;;
7501;SDS011;3792;47.740;7.606;2023-06-04T00:12:11;7.67;;;6.87;;
7501;SDS011;3792;47.740;7.606;2023-06-04T00:14:39;7.30;;;6.63;;
7501;SDS011;3792;47.740;7.606;2023-06-04T00:17:07;8.43;;;7.00;;
7501;SDS011;3792;47.740;7.606;2023-06-04T00:19:35;8.53;;;6.73;;
7501;SDS011;3792;47.740;7.606;2023-06-04T00:22:04;8.87;;;7.13;;
7501;SDS011;3792;47.740;7.606;2023-06-04T00:24:32;10.67;;;7.30;;
7501;SDS011;3792;47.740;7.606;2023-06-04T00:27:02;8.13;;;7.17;;
7501;SDS011;3792;47.740;7.606;2023-06-04T00:29:29;8.83;;;6.80;;
7501;SDS011;3792;47.740;7.606;2023-06-04T00:31:56;7.37;;;6.77;;
7501;SDS011;3792;47.740;7.606;2023-06-04T00:34:23;8.20;;;7.23;;
7501;SDS011;3792;47.740;7.606;2023-06-04T00:36:50;7.87;;;7.10;;
7501;SDS011;3792;47.740;7.606;2023-06-04T00:39:18;8.60;;;7.43;;
7501;SDS011;3792;47.740;7.606;2023-06-04T00:41:45;9.33;;;7.33;;
7501;SDS011;3792;47.740;7.606;2023-06-04T00:44:13;9.57;;;7.23;;
7501;SDS011;3792;47.740;7.606;2023-06-04T00:46:41;10.03;;;7.40;;
7501;SDS011;3792;47.740;7.606;2023-06-04T00:49:10;8.63;;;6.90;;
7501;SDS011;3792;47.740;7.606;2023-06-04T00:51:38;8.23;;;6.90;;
7501;SDS011;3792;47.740;7.606;2023-06-04T00:54:07;7.63;;;6.77;;
7501;SDS011;3792;47.740;7.606;2023-06-04T00:56:35;10.10;;;7.10;;
7501;SDS011;3792;47.740;7.606;2023-06-04T00:59:04;8.13;;;7.33;;
7501;SDS011;3792;47.740;7.606;2023-06-04T01:01:39;8.73;;;7.33;;
7501;SDS011;3792;47.740;7.606;2023-06-04T01:04:14;7.53;;;6.73;;
7501;SDS011;3792;47.740;7.606;2023-06-04T01:06:47;11.37;;;8.00;;
7501;SDS011;3792;47.740;7.606;2023-06-04T01:09:17;10.60;;;7.60;;
7501;SDS011;3792;47.740;7.606;2023-06-04T01:11:45;7.90;;;6.97;;
7501;SDS011;3792;47.740;7.606;2023-06-04T01:14:12;7.93;;;7.17;;
7501;SDS011;3792;47.740;7.606;2023-06-04T01:16:43;8.70;;;7.50;;
7501;SDS011;3792;47.740;7.606;2023-06-04T01:19:19;9.10;;;7.30;;
7501;SDS011;3792;47.740;7.606;2023-06-04T01:22:10;9.93;;;7.33;;
7501;SDS011;3792;47.740;7.606;2023-06-04T01:24:50;8.00;;;7.10;;
7501;SDS011;3792;47.740;7.606;2023-06-04T01:27:21;8.67;;;6.60;;
7501;SDS011;3792;47.740;7.606;2023-06-04T01:29:49;9.40;;;7.33;;
7501;SDS011;3792;47.740;7.606;2023-06-04T01:32:18;8.67;;;6.77;;
7501;SDS011;3792;47.740;7.606;2023-06-04T01:34:45;10.37;;;7.40;;
7501;SDS011;3792;47.740;7.606;2023-06-04T01:37:12;9.20;;;7.13;;
7501;SDS011;3792;47.740;7.606;2023-06-04T01:39:41;9.43;;;7.00;;
7501;SDS011;3792;47.740;7.606;2023-06-04T01:42:08;7.40;;;6.53;;
7501;SDS011;3792;47.740;7.606;2023-06-04T01:44:36;9.93;;;8.07;;
7501;SDS011;3792;47.740;7.606;2023-06-04T01:47:04;7.90;;;7.10;;
7501;SDS011;3792;47.740;7.606;2023-06-04T01:49:32;12.40;;;7.40;;
7501;SDS011;3792;47.740;7.606;2023-06-04T01:51:59;7.97;;;7.23;;
7501;SDS011;3792;47.740;7.606;2023-06-04T01:54:26;9.23;;;7.33;;
7501;SDS011;3792;47.740;7.606;2023-06-04T01:56:55;9.17;;;7.23;;
7501;SDS011;3792;47.740;7.606;2023-06-04T01:59:22;7.83;;;6.73;;
7501;SDS011;3792;47.740;7.606;2023-06-04T02:01:49;7.83;;;7.10;;
7501;SDS011;3792;47.740;7.606;2023-06-04T02:04:16;8.67;;;6.90;;
7501;SDS011;3792;47.740;7.606;2023-06-04T02:06:44;8.93;;;7.50;;
7501;SDS011;3792;47.740;7.606;2023-06-04T02:09:11;8.67;;;7.10;;
7501;SDS011;3792;47.740;7.606;2023-06-04T02:11:39;8.97;;;7.07;;
7501;SDS011;3792;47.740;7.606;2023-06-04T02:14:06;8.37;;;7.37;;
7501;SDS011;3792;47.740;7.606;2023-06-04T02:16:33;13.10;;;7.27;;
7501;SDS011;3792;47.740;7.606;2023-06-04T02:19:00;8.97;;;7.77;;
7501;SDS011;3792;47.740;7.606;2023-06-04T02:21:28;11.33;;;7.70;;
7501;SDS011;3792;47.740;7.606;2023-06-04T02:23:56;13.93;;;7.13;;
7501;SDS011;3792;47.740;7.606;2023-06-04T02:26:23;7.77;;;7.00;;
7501;SDS011;3792;47.740;7.606;2023-06-04T02:28:50;8.63;;;7.73;;
7501;SDS011;3792;47.740;7.606;2023-06-04T02:31:17;8.57;;;7.73;;
7501;SDS011;3792;47.740;7.606;2023-06-04T02:33:44;11.17;;;7.07;;
7501;SDS011;3792;47.740;7.606;2023-06-04T02:36:11;8.93;;;6.83;;
7501;SDS011;3792;47.740;7.606;2023-06-04T02:38:38;9.83;;;6.83;;
7501;SDS011;3792;47.740;7.606;2023-06-04T02:41:07;11.67;;;7.40;;
7501;SDS011;3792;47.740;7.606;2023-06-04T02:43:34;8.70;;;7.80;;
7501;SDS011;3792;47.740;7.606;2023-06-04T02:46:01;7.90;;;7.10;;
7501;SDS011;3792;47.740;7.606;2023-06-04T02:48:28;9.77;;;7.37;;
7501;SDS011;3792;47.740;7.606;2023-06-04T02:50:55;11.07;;;7.63;;
7501;SDS011;3792;47.740;7.606;2023-06-04T02:53:22;7.93;;;7.13;;
7501;SDS011;3792;47.740;7.606;2023-06-04T02:55:49;8.10;;;6.53;;
7501;SDS011;3792;47.740;7.606;2023-06-04T02:58:18;8.60;;;7.00;;
7501;SDS011;3792;47.740;7.606;2023-06-04T03:00:46;8.20;;;7.40;;
7501;SDS011;3792;47.740;7.606;2023-06-04T03:03:13;9.97;;;7.03;;
7501;SDS011;3792;47.740;7.606;2023-06-04T03:05:41;8.20;;;6.87;;
7501;SDS011;3792;47.740;7.606;2023-06-04T03:08:08;9.07;;;7.30;;
7501;SDS011;3792;47.740;7.606;2023-06-04T03:10:35;10.43;;;7.20;;
7501;SDS011;3792;47.740;7.606;2023-06-04T03:13:02;8.07;;;7.27;;
7501;SDS011;3792;47.740;7.606;2023-06-04T03:15:31;14.90;;;8.30;;
7501;SDS011;3792;47.740;7.606;2023-06-04T03:17:58;10.00;;;7.03;;
7501;SDS011;3792;47.740;7.606;2023-06-04T03:20:25;9.30;;;7.50;;
7501;SDS011;3792;47.740;7.606;2023-06-04T03:22:52;12.47;;;8.10;;
7501;SDS011;3792;47.740;7.606;2023-06-04T03:25:19;12.43;;;7.57;;
7501;SDS011;3792;47.740;7.606;2023-06-04T03:27:46;9.13;;;7.43;;
7501;SDS011;3792;47.740;7.606;2023-06-04T03:30:13;9.60;;;7.30;;
7501;SDS011;3792;47.740;7.606;2023-06-04T03:32:42;11.30;;;7.73;;
7501;SDS011;3792;47.740;7.606;2023-06-04T03:35:10;8.93;;;7.40;;
7501;SDS011;3792;47.740;7.606;2023-06-04T03:37:37;8.93;;;7.13;;
7501;SDS011;3792;47.740;7.606;2023-06-04T03:40:05;8.20;;;7.33;;
7501;SDS011;3792;47.740;7.606;2023-06-04T03:42:33;11.43;;;7.50;;
7501;SDS011;3792;47.740;7.606;2023-06-04T03:45:00;7.47;;;6.87;;
7501;SDS011;3792;47.740;7.606;2023-06-04T03:47:27;10.27;;;7.27;;
7501;SDS011;3792;47.740;7.606;2023-06-04T03:49:55;8.43;;;7.17;;
7501;SDS011;3792;47.740;7.606;2023-06-04T03:52:22;7.70;;;6.90;;
7501;SDS011;3792;47.740;7.606;2023-06-04T03:54:49;11.53;;;8.87;;
7501;SDS011;3792;47.740;7.606;2023-06-04T03:57:16;10.97;;;7.57;;
7501;SDS011;3792;47.740;7.606;2023-06-04T03:59:43;8.83;;;6.90;;
7501;SDS011;3792;47.740;7.606;2023-06-04T04:02:10;13.10;;;8.03;;
7501;SDS011;3792;47.740;7.606;2023-06-04T04:04:37;10.57;;;8.07;;
7501;SDS011;3792;47.740;7.606;2023-06-04T04:07:06;9.03;;;6.90;;
7501;SDS011;3792;47.740;7.606;2023-06-04T04:09:33;9.27;;;7.90;;
7501;SDS011;3792;47.740;7.606;2023-06-04T04:12:01;11.17;;;7.33;;
7501;SDS011;3792;47.740;7.606;2023-06-04T04:14:28;9.00;;;7.03;;
7501;SDS011;3792;47.740;7.606;2023-06-04T04:16:55;12.57;;;8.40;;
7501;SDS011;3792;47.740;7.606;2023-06-04T04:19:22;10.13;;;7.70;;
7501;SDS011;3792;47.740;7.606;2023-06-04T04:21:49;9.33;;;7.53;;
7501;SDS011;3792;47.740;7.606;2023-06-04T04:24:23;8.87;;;7.50;;
7501;SDS011;3792;47.740;7.606;2023-06-04T04:26:51;10.80;;;7.80;;
7501;SDS011;3792;47.740;7.606;2023-06-04T04:29:19;11.80;;;7.53;;
7501;SDS011;3792;47.740;7.606;2023-06-04T04:31:48;9.40;;;6.87;;
7501;SDS011;3792;47.740;7.606;2023-06-04T04:34:15;8.90;;;7.43;;
7501;SDS011;3792;47.740;7.606;2023-06-04T04:36:42;9.80;;;7.80;;
7501;SDS011;3792;47.740;7.606;2023-06-04T04:39:09;11.87;;;7.83;;
7501;SDS011;3792;47.740;7.606;2023-06-04T04:41:38;9.20;;;7.93;;
7501;SDS011;3792;47.740;7.606;2023-06-04T04:44:05;10.73;;;7.30;;
7501;SDS011;3792;47.740;7.606;2023-06-04T04:46:32;8.13;;;7.43;;
7501;SDS011;3792;47.740;7.606;2023-06-04T04:48:59;11.33;;;7.70;;
7501;SDS011;3792;47.740;7.606;2023-06-04T04:51:26;8.07;;;7.27;;
7501;SDS011;3792;47.740;7.606;2023-06-04T04:53:53;9.23;;;7.60;;
7501;SDS011;3792;47.740;7.606;2023-06-04T04:56:20;10.37;;;7.47;;
7501;SDS011;3792;47.740;7.606;2023-06-04T04:58:49;11.10;;;7.27;;
7501;SDS011;3792;47.740;7.606;2023-06-04T05:01:16;10.07;;;7.37;;
7501;SDS011;3792;47.740;7.606;2023-06-04T05:03:43;9.50;;;7.57;;
7501;SDS011;3792;47.740;7.606;2023-06-04T05:06:10;8.93;;;7.87;;
7501;SDS011;3792;47.740;7.606;2023-06-04T05:08:38;7.33;;;6.70;;
7501;SDS011;3792;47.740;7.606;2023-06-04T05:11:05;12.87;;;8.33;;
7501;SDS011;3792;47.740;7.606;2023-06-04T05:13:32;10.43;;;7.80;;
7501;SDS011;3792;47.740;7.606;2023-06-04T05:16:00;9.03;;;7.07;;
7501;SDS011;3792;47.740;7.606;2023-06-04T05:18:31;11.97;;;7.60;;
7501;SDS011;3792;47.740;7.606;2023-06-04T05:20:58;9.40;;;7.80;;
7501;SDS011;3792;47.740;7.606;2023-06-04T05:23:27;13.20;;;7.93;;
7501;SDS011;3792;47.740;7.606;2023-06-04T05:25:57;8.77;;;7.50;;
7501;SDS011;3792;47.740;7.606;2023-06-04T05:28:24;8.90;;;7.83;;
7501;SDS011;3792;47.740;7.606;2023-06-04T05:30:51;8.33;;;7.53;;
7501;SDS011;3792;47.740;7.606;2023-06-04T05:33:26;8.37;;;7.20;;
7501;SDS011;3792;47.740;7.606;2023-06-04T05:35:54;8.40;;;7.60;;
7501;SDS011;3792;47.740;7.606;2023-06-04T05:38:22;9.47;;;7.50;;
7501;SDS011;3792;47.740;7.606;2023-06-04T05:40:50;9.83;;;7.77;;
7501;SDS011;3792;47.740;7.606;2023-06-04T05:43:18;9.60;;;7.50;;
7501;SDS011;3792;47.740;7.606;2023-06-04T05:45:45;8.87;;;6.40;;
7501;SDS011;3792;47.740;7.606;2023-06-04T05:48:12;8.27;;;7.20;;
7501;SDS011;3792;47.740;7.606;2023-06-04T05:50:41;8.57;;;7.13;;
7501;SDS011;3792;47.740;7.606;2023-06-04T05:53:08;9.00;;;7.27;;
7501;SDS011;3792;47.740;7.606;2023-06-04T05:55:35;8.20;;;7.40;;
7501;SDS011;3792;47.740;7.606;2023-06-04T05:58:02;9.97;;;7.40;;
7501;SDS011;3792;47.740;7.606;2023-06-04T06:00:29;8.07;;;7.27;;
7501;SDS011;3792;47.740;7.606;2023-06-04T06:02:56;9.67;;;7.27;;
7501;SDS011;3792;47.740;7.606;2023-06-04T06:05:23;7.53;;;6.63;;
7501;SDS011;3792;47.740;7.606;2023-06-04T06:07:52;8.20;;;7.40;;
7501;SDS011;3792;47.740;7.606;2023-06-04T06:10:21;7.93;;;7.13;;
7501;SDS011;3792;47.740;7.606;2023-06-04T06:12:48;12.90;;;8.07;;
7501;SDS011;3792;47.740;7.606;2023-06-04T06:15:15;9.83;;;7.10;;
7501;SDS011;3792;47.740;7.606;2023-06-04T06:17:42;12.20;;;8.30;;
7501;SDS011;3792;47.740;7.606;2023-06-04T06:20:09;8.80;;;7.43;;
7501;SDS011;3792;47.740;7.606;2023-06-04T06:22:37;10.33;;;7.00;;
7501;SDS011;3792;47.740;7.606;2023-06-04T06:25:06;8.43;;;7.53;;
7501;SDS011;3792;47.740;7.606;2023-06-04T06:27:33;10.97;;;7.47;;
7501;SDS011;3792;47.740;7.606;2023-06-04T06:30:00;11.57;;;8.30;;
7501;SDS011;3792;47.740;7.606;2023-06-04T06:32:28;9.83;;;7.83;;
7501;SDS011;3792;47.740;7.606;2023-06-04T06:34:55;8.73;;;7.60;;
7501;SDS011;3792;47.740;7.606;2023-06-04T06:37:22;10.67;;;8.37;;
7501;SDS011;3792;47.740;7.606;2023-06-04T06:39:50;12.60;;;7.43;;
7501;SDS011;3792;47.740;7.606;2023-06-04T06:42:18;12.07;;;7.20;;
7501;SDS011;3792;47.740;7.606;2023-06-04T06:44:45;10.97;;;7.53;;
7501;SDS011;3792;47.740;7.606;2023-06-04T06:47:12;9.67;;;7.63;;
7501;SDS011;3792;47.740;7.606;2023-06-04T06:49:39;11.73;;;8.00;;
7501;SDS011;3792;47.740;7.606;2023-06-04T06:52:06;10.47;;;8.00;;
7501;SDS011;3792;47.740;7.606;2023-06-04T06:54:34;8.73;;;7.27;;
7501;SDS011;3792;47.740;7.606;2023-06-04T06:57:01;10.97;;;8.53;;
7501;SDS011;3792;47.740;7.606;2023-06-04T06:59:29;10.50;;;8.00;;
7501;SDS011;3792;47.740;7.606;2023-06-04T07:01:56;9.87;;;8.30;;
7501;SDS011;3792;47.740;7.606;2023-06-04T07:04:23;10.17;;;7.60;;
7501;SDS011;3792;47.740;7.606;2023-06-04T07:06:51;8.53;;;7.53;;
7501;SDS011;3792;47.740;7.606;2023-06-04T07:09:18;10.40;;;8.23;;
7501;SDS011;3792;47.740;7.606;2023-06-04T07:11:45;10.07;;;7.80;;
7501;SDS011;3792;47.740;7.606;2023-06-04T07:14:12;12.27;;;8.17;;
7501;SDS011;3792;47.740;7.606;2023-06-04T07:16:40;11.20;;;8.20;;
7501;SDS011;3792;47.740;7.606;2023-06-04T07:19:07;9.00;;;7.60;;
7501;SDS011;3792;47.740;7.606;2023-06-04T07:21:34;8.50;;;7.13;;
7501;SDS011;3792;47.740;7.606;2023-06-04T07:24:03;14.43;;;7.80;;
7501;SDS011;3792;47.740;7.606;2023-06-04T07:26:30;15.43;;;8.33;;
7501;SDS011;3792;47.740;7.606;2023-06-04T07:28:58;10.13;;;6.83;;
7501;SDS011;3792;47.740;7.606;2023-06-04T07:31:25;11.73;;;6.67;;
7501;SDS011;3792;47.740;7.606;2023-06-04T07:33:53;10.00;;;7.13;;
7501;SDS011;3792;47.740;7.606;2023-06-04T07:36:20;9.53;;;6.30;;
7501;SDS011;3792;47.740;7.606;2023-06-04T07:38:47;11.00;;;6.77;;
7501;SDS011;3792;47.740;7.606;2023-06-04T07:41:14;11.90;;;6.93;;
7501;SDS011;3792;47.740;7.606;2023-06-04T07:43:42;7.47;;;6.73;;
7501;SDS011;3792;47.740;7.606;2023-06-04T07:46:10;9.93;;;6.70;;
7501;SDS011;3792;47.740;7.606;2023-06-04T07:48:38;7.53;;;6.30;;
7501;SDS011;3792;47.740;7.606;2023-06-04T07:51:06;6.47;;;5.77;;
7501;SDS011;3792;47.740;7.606;2023-06-04T07:53:33;6.57;;;5.50;;
7501;SDS011;3792;47.740;7.606;2023-06-04T07:56:01;8.00;;;5.37;;
7501;SDS011;3792;47.740;7.606;2023-06-04T07:58:28;11.00;;;5.77;;
7501;SDS011;3792;47.740;7.606;2023-06-04T08:00:55;7.30;;;5.17;;
7501;SDS011;3792;47.740;7.606;2023-06-04T08:03:22;6.17;;;5.43;;
7501;SDS011;3792;47.740;7.606;2023-06-04T08:05:49;7.90;;;5.77;;
7501;SDS011;3792;47.740;7.606;2023-06-04T08:08:18;9.57;;;6.63;;
7501;SDS011;3792;47.740;7.606;2023-06-04T08:10:45;8.90;;;6.10;;
7501;SDS011;3792;47.740;7.606;2023-06-04T08:13:12;9.00;;;6.40;;
7501;SDS011;3792;47.740;7.606;2023-06-04T08:15:39;8.07;;;5.87;;
7501;SDS011;3792;47.740;7.606;2023-06-04T08:18:07;8.77;;;6.77;;
7501;SDS011;3792;47.740;7.606;2023-06-04T08:20:34;8.73;;;6.67;;
7501;SDS011;3792;47.740;7.606;2023-06-04T08:23:01;11.93;;;7.07;;
7501;SDS011;3792;47.740;7.606;2023-06-04T08:25:30;9.67;;;7.03;;
7501;SDS011;3792;47.740;7.606;2023-06-04T08:27:57;12.30;;;7.57;;
7501;SDS011;3792;47.740;7.606;2023-06-04T08:30:24;11.30;;;7.13;;
7501;SDS011;3792;47.740;7.606;2023-06-04T08:32:52;10.17;;;7.23;;
7501;SDS011;3792;47.740;7.606;2023-06-04T08:35:19;8.77;;;7.43;;
7501;SDS011;3792;47.740;7.606;2023-06-04T08:37:46;8.50;;;6.90;;
7501;SDS011;3792;47.740;7.606;2023-06-04T08:40:13;9.63;;;7.93;;
7501;SDS011;3792;47.740;7.606;2023-06-04T08:42:42;9.27;;;7.43;;
7501;SDS011;3792;47.740;7.606;2023-06-04T08:45:10;13.47;;;7.20;;
7501;SDS011;3792;47.740;7.606;2023-06-04T08:47:40;9.83;;;7.00;;
7501;SDS011;3792;47.740;7.606;2023-06-04T08:50:10;10.23;;;6.83;;
7501;SDS011;3792;47.740;7.606;2023-06-04T08:52:39;10.63;;;6.87;;
7501;SDS011;3792;47.740;7.606;2023-06-04T08:55:08;11.63;;;6.50;;
7501;SDS011;3792;47.740;7.606;2023-06-04T08:57:38;8.77;;;6.43;;
7501;SDS011;3792;47.740;7.606;2023-06-04T09:00:08;9.53;;;6.87;;
7501;SDS011;3792;47.740;7.606;2023-06-04T09:02:35;8.87;;;6.23;;
7501;SDS011;3792;47.740;7.606;2023-06-04T09:05:04;8.30;;;6.23;;
7501;SDS011;3792;47.740;7.606;2023-06-04T09:07:34;10.67;;;6.60;;
7501;SDS011;3792;47.740;7.606;2023-06-04T09:10:04;13.10;;;6.20;;
7501;SDS011;3792;47.740;7.606;2023-06-04T09:12:33;7.47;;;5.90;;
7501;SDS011;3792;47.740;7.606;2023-06-04T09:15:05;8.40;;;6.20;;
7501;SDS011;3792;47.740;7.606;2023-06-04T09:17:36;11.73;;;6.20;;
7501;SDS011;3792;47.740;7.606;2023-06-04T09:20:03;9.10;;;6.03;;
7501;SDS011;3792;47.740;7.606;2023-06-04T09:22:33;7.03;;;5.80;;
7501;SDS011;3792;47.740;7.606;2023-06-04T09:25:03;12.83;;;6.70;;
7501;SDS011;3792;47.740;7.606;2023-06-04T09:27:37;7.63;;;6.10;;
7501;SDS011;3792;47.740;7.606;2023-06-04T09:30:08;9.00;;;6.43;;
7501;SDS011;3792;47.740;7.606;2023-06-04T09:32:35;8.13;;;6.10;;
7501;SDS011;3792;47.740;7.606;2023-06-04T09:35:09;7.93;;;6.23;;
7501;SDS011;3792;47.740;7.606;2023-06-04T09:37:37;9.03;;;6.47;;
7501;SDS011;3792;47.740;7.606;2023-06-04T09:40:05;8.73;;;6.10;;
7501;SDS011;3792;47.740;7.606;2023-06-04T09:42:44;7.00;;;6.30;;
7501;SDS011;3792;47.740;7.606;2023-06-04T09:45:25;7.30;;;6.37;;
7501;SDS011;3792;47.740;7.606;2023-06-04T09:47:53;7.70;;;6.50;;
7501;SDS011;3792;47.740;7.606;2023-06-04T09:50:24;8.87;;;5.50;;
7501;SDS011;3792;47.740;7.606;2023-06-04T09:52:53;7.50;;;5.67;;
7501;SDS011;3792;47.740;7.606;2023-06-04T09:55:20;7.83;;;5.20;;
7501;SDS011;3792;47.740;7.606;2023-06-04T09:57:47;8.07;;;5.03;;
7501;SDS011;3792;47.740;7.606;2023-06-04T10:00:17;8.23;;;5.17;;
7501;SDS011;3792;47.740;7.606;2023-06-04T10:02:48;8.43;;;5.10;;
7501;SDS011;3792;47.740;7.606;2023-06-04T10:05:16;7.17;;;5.00;;
7501;SDS011;3792;47.740;7.606;2023-06-04T10:07:47;6.07;;;4.60;;
7501;SDS011;3792;47.740;7.606;2023-06-04T10:10:23;6.57;;;5.13;;
7501;SDS011;3792;47.740;7.606;2023-06-04T10:12:54;7.37;;;5.10;;
7501;SDS011;3792;47.740;7.606;2023-06-04T10:15:28;7.67;;;5.27;;
7501;SDS011;3792;47.740;7.606;2023-06-04T10:17:57;6.17;;;5.03;;
7501;SDS011;3792;47.740;7.606;2023-06-04T10:20:25;6.13;;;5.03;;
7501;SDS011;3792;47.740;7.606;2023-06-04T10:22:52;6.57;;;5.10;;
7501;SDS011;3792;47.740;7.606;2023-06-04T10:25:20;8.30;;;5.07;;
7501;SDS011;3792;47.740;7.606;2023-06-04T10:27:47;6.23;;;5.40;;
7501;SDS011;3792;47.740;7.606;2023-06-04T10:30:18;6.07;;;5.23;;
7501;SDS011;3792;47.740;7.606;2023-06-04T10:32:47;6.37;;;5.57;;
7501;SDS011;3792;47.740;7.606;2023-06-04T10:35:14;6.73;;;5.60;;
7501;SDS011;3792;47.740;7.606;2023-06-04T10:37:42;9.60;;;5.77;;
7501;SDS011;3792;47.740;7.606;2023-06-04T10:40:09;7.97;;;6.13;;
7501;SDS011;3792;47.740;7.606;2023-06-04T10:42:40;11.87;;;6.27;;
7501;SDS011;3792;47.740;7.606;2023-06-04T10:45:09;7.00;;;5.57;;
7501;SDS011;3792;47.740;7.606;2023-06-04T10:47:37;9.20;;;5.53;;
7501;SDS011;3792;47.740;7.606;2023-06-04T10:50:10;9.80;;;6.00;;
7501;SDS011;3792;47.740;7.606;2023-06-04T10:52:50;7.47;;;5.57;;
7501;SDS011;3792;47.740;7.606;2023-06-04T10:55:17;7.27;;;5.40;;
7501;SDS011;3792;47.740;7.606;2023-06-04T10:57:51;8.17;;;5.67;;
7501;SDS011;3792;47.740;7.606;2023-06-04T11:00:19;6.07;;;5.50;;
7501;SDS011;3792;47.740;7.606;2023-06-04T11:02:52;9.60;;;5.83;;
7501;SDS011;3792;47.740;7.606;2023-06-04T11:05:32;8.30;;;5.27;;
7501;SDS011;3792;47.740;7.606;2023-06-04T11:08:03;8.23;;;6.23;;
7501;SDS011;3792;47.740;7.606;2023-06-04T11:10:31;6.50;;;5.90;;
7501;SDS011;3792;47.740;7.606;2023-06-04T11:13:00;8.30;;;5.13;;
7501;SDS011;3792;47.740;7.606;2023-06-04T11:15:37;6.43;;;5.40;;
7501;SDS011;3792;47.740;7.606;2023-06-04T11:18:04;6.23;;;5.50;;
7501;SDS011;3792;47.740;7.606;2023-06-04T11:20:33;7.97;;;5.50;;
7501;SDS011;3792;47.740;7.606;2023-06-04T11:23:00;9.17;;;5.97;;
7501;SDS011;3792;47.740;7.606;2023-06-04T11:25:28;9.83;;;5.93;;
7501;SDS011;3792;47.740;7.606;2023-06-04T11:27:58;7.53;;;5.93;;
7501;SDS011;3792;47.740;7.606;2023-06-04T11:30:27;7.40;;;5.87;;
7501;SDS011;3792;47.740;7.606;2023-06-04T11:33:01;6.27;;;5.43;;
7501;SDS011;3792;47.740;7.606;2023-06-04T11:35:30;6.57;;;5.87;;
7501;SDS011;3792;47.740;7.606;2023-06-04T11:37:58;7.60;;;5.80;;
7501;SDS011;3792;47.740;7.606;2023-06-04T11:40:26;8.13;;;5.30;;
7501;SDS011;3792;47.740;7.606;2023-06-04T11:42:53;6.70;;;5.30;;
7501;SDS011;3792;47.740;7.606;2023-06-04T11:45:21;8.37;;;5.80;;
7501;SDS011;3792;47.740;7.606;2023-06-04T11:47:51;9.13;;;5.73;;
7501;SDS011;3792;47.740;7.606;2023-06-04T11:50:20;6.23;;;5.27;;
7501;SDS011;3792;47.740;7.606;2023-06-04T11:52:48;8.40;;;5.77;;
7501;SDS011;3792;47.740;7.606;2023-06-04T11:55:17;7.43;;;5.50;;
7501;SDS011;3792;47.740;7.606;2023-06-04T11:57:45;6.13;;;5.53;;
7501;SDS011;3792;47.740;7.606;2023-06-04T12:00:13;6.17;;;5.53;;
7501;SDS011;3792;47.740;7.606;2023-06-04T12:02:47;6.80;;;5.33;;
7501;SDS011;3792;47.740;7.606;2023-06-04T12:05:16;7.37;;;5.67;;
7501;SDS011;3792;47.740;7.606;2023-06-04T12:07:45;7.53;;;5.60;;
7501;SDS011;3792;47.740;7.606;2023-06-04T12:10:17;5.97;;;5.37;;
7501;SDS011;3792;47.740;7.606;2023-06-04T12:12:44;7.40;;;5.10;;
7501;SDS011;3792;47.740;7.606;2023-06-04T12:15:11;10.13;;;6.03;;
7501;SDS011;3792;47.740;7.606;2023-06-04T12:17:50;6.60;;;5.47;;
7501;SDS011;3792;47.740;7.606;2023-06-04T12:20:18;7.53;;;5.40;;
7501;SDS011;3792;47.740;7.606;2023-06-04T12:22:45;7.13;;;5.67;;
7501;SDS011;3792;47.740;7.606;2023-06-04T12:25:24;7.80;;;5.73;;
7501;SDS011;3792;47.740;7.606;2023-06-04T12:27:52;6.50;;;4.77;;
7501;SDS011;3792;47.740;7.606;2023-06-04T12:30:20;6.30;;;5.27;;
7501;SDS011;3792;47.740;7.606;2023-06-04T12:32:47;6.00;;;4.93;;
7501;SDS011;3792;47.740;7.606;2023-06-04T12:35:16;5.80;;;5.30;;
7501;SDS011;3792;47.740;7.606;2023-06-04T12:37:43;6.73;;;5.43;;
7501;SDS011;3792;47.740;7.606;2023-06-04T12:40:11;6.67;;;5.17;;
7501;SDS011;3792;47.740;7.606;2023-06-04T12:42:39;9.10;;;5.03;;
7501;SDS011;3792;47.740;7.606;2023-06-04T12:45:08;9.73;;;5.23;;
7501;SDS011;3792;47.740;7.606;2023-06-04T12:47:37;4.90;;;4.40;;
7501;SDS011;3792;47.740;7.606;2023-06-04T12:50:04;8.47;;;5.00;;
7501;SDS011;3792;47.740;7.606;2023-06-04T12:52:32;6.77;;;5.43;;
7501;SDS011;3792;47.740;7.606;2023-06-04T12:54:59;5.53;;;5.03;;
7501;SDS011;3792;47.740;7.606;2023-06-04T12:57:26;7.17;;;4.83;;
7501;SDS011;3792;47.740;7.606;2023-06-04T12:59:55;6.27;;;4.93;;
7501;SDS011;3792;47.740;7.606;2023-06-04T13:02:22;6.30;;;5.70;;
7501;SDS011;3792;47.740;7.606;2023-06-04T13:04:49;5.60;;;5.10;;
7501;SDS011;3792;47.740;7.606;2023-06-04T13:07:19;6.63;;;4.90;;
7501;SDS011;3792;47.740;7.606;2023-06-04T13:09:46;9.50;;;5.53;;
7501;SDS011;3792;47.740;7.606;2023-06-04T13:12:14;6.43;;;4.90;;
7501;SDS011;3792;47.740;7.606;2023-06-04T13:14:41;5.43;;;4.93;;
7501;SDS011;3792;47.740;7.606;2023-06-04T13:17:09;6.17;;;5.10;;
7501;SDS011;3792;47.740;7.606;2023-06-04T13:19:36;5.10;;;4.50;;
7501;SDS011;3792;47.740;7.606;2023-06-04T13:22:03;6.17;;;5.00;;
7501;SDS011;3792;47.740;7.606;2023-06-04T13:24:30;8.17;;;5.00;;
7501;SDS011;3792;47.740;7.606;2023-06-04T13:26:57;4.97;;;4.53;;
7501;SDS011;3792;47.740;7.606;2023-06-04T13:29:25;6.93;;;4.93;;
7501;SDS011;3792;47.740;7.606;2023-06-04T13:31:52;6.00;;;4.63;;
7501;SDS011;3792;47.740;7.606;2023-06-04T13:34:21;5.30;;;4.80;;
7501;SDS011;3792;47.740;7.606;2023-06-04T13:36:48;4.40;;;4.10;;
7501;SDS011;3792;47.740;7.606;2023-06-04T13:39:15;5.03;;;4.53;;
7501;SDS011;3792;47.740;7.606;2023-06-04T13:41:42;5.63;;;4.27;;
7501;SDS011;3792;47.740;7.606;2023-06-04T13:44:09;6.43;;;5.07;;
7501;SDS011;3792;47.740;7.606;2023-06-04T13:46:36;6.33;;;5.13;;
7501;SDS011;3792;47.740;7.606;2023-06-04T13:49:03;6.27;;;4.97;;
7501;SDS011;3792;47.740;7.606;2023-06-04T13:51:32;4.77;;;4.37;;
7501;SDS011;3792;47.740;7.606;2023-06-04T13:53:59;5.47;;;4.60;;
7501;SDS011;3792;47.740;7.606;2023-06-04T13:56:26;5.30;;;4.77;;
7501;SDS011;3792;47.740;7.606;2023-06-04T13:58:53;6.57;;;4.73;;
7501;SDS011;3792;47.740;7.606;2023-06-04T14:01:20;5.53;;;5.03;;
7501;SDS011;3792;47.740;7.606;2023-06-04T14:03:47;5.83;;;5.27;;
7501;SDS011;3792;47.740;7.606;2023-06-04T14:06:14;7.60;;;4.60;;
7501;SDS011;3792;47.740;7.606;2023-06-04T14:08:42;5.33;;;4.23;;
7501;SDS011;3792;47.740;7.606;2023-06-04T14:11:09;4.87;;;4.47;;
7501;SDS011;3792;47.740;7.606;2023-06-04T14:13:40;4.90;;;4.37;;
7501;SDS011;3792;47.740;7.606;2023-06-04T14:16:14;5.57;;;4.33;;
7501;SDS011;3792;47.740;7.606;2023-06-04T14:18:42;6.57;;;5.17;;
7501;SDS011;3792;47.740;7.606;2023-06-04T14:21:09;5.47;;;4.57;;
7501;SDS011;3792;47.740;7.606;2023-06-04T14:23:38;5.60;;;4.37;;
7501;SDS011;3792;47.740;7.606;2023-06-04T14:26:06;5.23;;;4.53;;
7501;SDS011;3792;47.740;7.606;2023-06-04T14:28:33;6.20;;;4.87;;
7501;SDS011;3792;47.740;7.606;2023-06-04T14:31:00;5.60;;;4.60;;
7501;SDS011;3792;47.740;7.606;2023-06-04T14:33:28;5.77;;;4.57;;
7501;SDS011;3792;47.740;7.606;2023-06-04T14:35:55;5.17;;;4.60;;
7501;SDS011;3792;47.740;7.606;2023-06-04T14:38:22;6.40;;;4.27;;
7501;SDS011;3792;47.740;7.606;2023-06-04T14:40:49;6.33;;;4.53;;
7501;SDS011;3792;47.740;7.606;2023-06-04T14:43:17;5.07;;;4.57;;
7501;SDS011;3792;47.740;7.606;2023-06-04T14:45:44;6.23;;;4.67;;
7501;SDS011;3792;47.740;7.606;2023-06-04T14:48:11;7.13;;;4.60;;
7501;SDS011;3792;47.740;7.606;2023-06-04T14:50:38;6.27;;;4.47;;
7501;SDS011;3792;47.740;7.606;2023-06-04T14:53:06;5.37;;;4.47;;
7501;SDS011;3792;47.740;7.606;2023-06-04T14:55:33;6.37;;;4.63;;
7501;SDS011;3792;47.740;7.606;2023-06-04T14:58:00;5.00;;;4.50;;
7501;SDS011;3792;47.740;7.606;2023-06-04T15:00:30;5.73;;;4.40;;
7501;SDS011;3792;47.740;7.606;2023-06-04T15:02:57;6.63;;;5.20;;
7501;SDS011;3792;47.740;7.606;2023-06-04T15:05:25;8.03;;;4.60;;
7501;SDS011;3792;47.740;7.606;2023-06-04T15:07:52;6.67;;;4.67;;
7501;SDS011;3792;47.740;7.606;2023-06-04T15:10:19;6.13;;;4.53;;
7501;SDS011;3792;47.740;7.606;2023-06-04T15:12:46;5.77;;;4.83;;
7501;SDS011;3792;47.740;7.606;2023-06-04T15:15:13;5.07;;;4.57;;
7501;SDS011;3792;47.740;7.606;2023-06-04T15:17:42;4.67;;;4.27;;
7501;SDS011;3792;47.740;7.606;2023-06-04T15:20:09;7.40;;;5.03;;